createdAt,value
2022-09-12T00:02:08.900Z,55.57
2022-09-12T00:05:10.992Z,55.57
2022-09-12T00:08:14.193Z,55.61
2022-09-12T00:11:16.264Z,55.64
2022-09-12T00:14:19.505Z,55.55
2022-09-12T00:17:21.553Z,55.65
2022-09-12T00:20:23.547Z,55.69
2022-09-12T00:23:25.532Z,55.72
2022-09-12T00:26:27.720Z,55.60
2022-09-12T00:29:29.974Z,55.65
2022-09-12T00:32:32.040Z,55.61
2022-09-12T00:35:34.044Z,55.76
2022-09-12T00:38:38.532Z,55.78
2022-09-12T00:41:40.649Z,55.69
2022-09-12T00:44:46.005Z,55.64
2022-09-12T00:47:48.145Z,55.67
2022-09-12T00:50:50.512Z,55.64
2022-09-12T00:53:54.781Z,55.65
2022-09-12T00:57:01.540Z,55.65
2022-09-12T01:00:16.727Z,55.67
2022-09-12T01:03:21.331Z,55.66
2022-09-12T01:06:36.484Z,55.70
2022-09-12T01:09:39.885Z,55.75
2022-09-12T01:12:44.133Z,55.60
2022-09-12T01:15:46.586Z,55.65
2022-09-12T01:19:06.347Z,55.65
2022-09-12T01:22:17.531Z,55.60
2022-09-12T01:25:44.253Z,55.74
2022-09-12T01:29:09.433Z,55.65
2022-09-12T01:32:26.402Z,55.71
2022-09-12T01:35:48.670Z,55.61
2022-09-12T01:38:59.343Z,55.63
2022-09-12T01:42:19.296Z,55.55
2022-09-12T01:45:33.346Z,55.52
2022-09-12T01:48:47.661Z,55.58
2022-09-12T01:52:01.630Z,55.58
2022-09-12T01:55:18.709Z,55.52
2022-09-12T01:58:29.176Z,55.61
2022-09-12T02:01:54.908Z,55.60
2022-09-12T02:05:12.721Z,55.59
2022-09-12T02:08:20.435Z,55.57
2022-09-12T02:11:22.649Z,55.62
2022-09-12T02:14:29.877Z,55.58
2022-09-12T02:17:39.695Z,55.56
2022-09-12T02:20:50.270Z,55.64
2022-09-12T02:23:58.319Z,55.54
2022-09-12T02:27:07.658Z,55.50
2022-09-12T02:30:10.852Z,55.58
2022-09-12T02:33:19.903Z,55.62
2022-09-12T02:36:32.792Z,55.54
2022-09-12T02:39:35.668Z,55.68
2022-09-12T02:42:38.077Z,55.61
2022-09-12T02:45:40.367Z,55.54
2022-09-12T02:48:44.103Z,55.45
2022-09-12T02:51:47.605Z,55.52
2022-09-12T02:54:50.032Z,55.52
2022-09-12T02:57:52.045Z,55.58
2022-09-12T03:01:13.785Z,55.53
2022-09-12T03:04:41.066Z,55.42
2022-09-12T03:07:49.752Z,55.41
2022-09-12T03:11:03.696Z,55.40
2022-09-12T03:14:24.125Z,55.44
2022-09-12T03:17:49.696Z,55.41
2022-09-12T03:21:07.264Z,55.40
2022-09-12T03:24:25.167Z,55.44
2022-09-12T03:27:36.231Z,55.42
2022-09-12T03:30:46.832Z,55.36
2022-09-12T03:33:48.890Z,55.42
2022-09-12T03:36:51.596Z,55.49
2022-09-12T03:39:53.635Z,55.41
2022-09-12T03:42:55.929Z,55.32
2022-09-12T03:45:57.949Z,55.35
2022-09-12T03:49:00.008Z,55.30
2022-09-12T03:52:02.245Z,55.19
2022-09-12T03:55:05.009Z,55.33
2022-09-12T03:58:07.244Z,55.23
2022-09-12T04:01:12.489Z,55.20
2022-09-12T04:04:14.610Z,55.30
2022-09-12T04:07:17.453Z,55.28
2022-09-12T04:10:19.518Z,55.36
2022-09-12T04:13:21.666Z,55.29
2022-09-12T04:16:23.769Z,55.31
2022-09-12T04:19:26.875Z,55.36
2022-09-12T04:22:29.961Z,55.33
2022-09-12T04:25:32.399Z,55.35
2022-09-12T04:28:36.276Z,55.27
2022-09-12T04:31:38.461Z,55.29
2022-09-12T04:34:40.501Z,55.26
2022-09-12T04:37:42.519Z,55.17
2022-09-12T04:40:44.643Z,55.33
2022-09-12T04:43:48.348Z,55.26
2022-09-12T04:46:50.387Z,55.26
2022-09-12T04:49:52.406Z,55.23
2022-09-12T04:52:55.141Z,55.42
2022-09-12T04:56:02.475Z,55.39
2022-09-12T04:59:04.828Z,55.25
2022-09-12T05:02:07.086Z,55.33
2022-09-12T05:05:09.836Z,55.35
2022-09-12T05:08:11.867Z,55.29
2022-09-12T05:11:16.283Z,55.29
2022-09-12T05:14:18.439Z,55.42
2022-09-12T05:17:20.709Z,55.45
2022-09-12T05:20:22.691Z,55.40
2022-09-12T05:23:24.930Z,55.47
2022-09-12T05:26:27.719Z,55.45
2022-09-12T05:29:29.826Z,55.49
2022-09-12T05:32:32.446Z,55.65
2022-09-12T05:35:34.467Z,55.65
2022-09-12T05:38:37.372Z,55.59
2022-09-12T05:41:39.514Z,55.43
2022-09-12T05:44:41.638Z,55.66
2022-09-12T05:47:46.252Z,55.59
2022-09-12T05:50:48.251Z,55.53
2022-09-12T05:53:58.476Z,55.61
2022-09-12T05:57:00.600Z,55.65
2022-09-12T06:00:04.092Z,55.58
2022-09-12T06:03:06.293Z,55.39
2022-09-12T06:06:08.584Z,55.39
2022-09-12T06:09:11.980Z,55.58
2022-09-12T06:12:14.126Z,55.36
2022-09-12T06:15:16.662Z,55.28
2022-09-12T06:18:18.690Z,55.31
2022-09-12T06:21:21.840Z,55.36
2022-09-12T06:24:23.916Z,55.75
2022-09-12T06:27:26.573Z,56.23
2022-09-12T06:30:28.677Z,56.26
2022-09-12T06:33:33.433Z,55.92
2022-09-12T06:36:41.625Z,56.10
2022-09-12T06:39:43.643Z,56.50
2022-09-12T06:42:45.767Z,56.05
2022-09-12T06:45:49.852Z,55.59
2022-09-12T06:48:52.777Z,56.01
2022-09-12T06:51:54.765Z,56.26
2022-09-12T06:54:56.737Z,56.32
2022-09-12T06:57:58.758Z,56.17
2022-09-12T07:01:15.590Z,56.34
2022-09-12T07:04:17.831Z,56.18
2022-09-12T07:07:20.005Z,56.17
2022-09-12T07:10:22.741Z,56.08
2022-09-12T07:13:25.431Z,56.13
2022-09-12T07:16:27.884Z,56.00
2022-09-12T07:19:30.063Z,56.25
2022-09-12T07:22:32.229Z,56.16
2022-09-12T07:25:34.337Z,55.96
2022-09-12T07:28:36.924Z,55.49
2022-09-12T07:31:38.948Z,55.39
2022-09-12T07:34:42.149Z,55.46
2022-09-12T07:37:44.205Z,55.27
2022-09-12T07:40:46.413Z,55.10
2022-09-12T07:43:51.688Z,54.74
2022-09-12T07:46:53.728Z,54.92
2022-09-12T07:49:55.694Z,54.62
2022-09-12T07:52:57.693Z,54.55
2022-09-12T07:56:00.023Z,54.18
2022-09-12T07:59:02.144Z,54.36
2022-09-12T08:02:04.224Z,54.47
2022-09-12T08:05:06.781Z,54.22
2022-09-12T08:08:09.774Z,54.07
2022-09-12T08:11:13.959Z,54.04
2022-09-12T08:14:17.671Z,53.85
2022-09-12T08:17:19.898Z,53.76
2022-09-12T08:20:24.311Z,53.99
2022-09-12T08:23:30.396Z,53.92
2022-09-12T08:26:33.650Z,53.65
2022-09-12T08:29:38.568Z,53.51
2022-09-12T08:32:40.633Z,53.36
2022-09-12T08:35:42.700Z,53.28
2022-09-12T08:38:46.763Z,53.23
2022-09-12T08:41:54.364Z,53.25
2022-09-12T08:45:09.230Z,53.31
2022-09-12T08:48:12.491Z,53.33
2022-09-12T08:51:18.348Z,53.23
2022-09-12T08:54:26.737Z,53.37
2022-09-12T08:57:28.789Z,54.01
2022-09-12T09:00:54.280Z,55.03
2022-09-12T09:04:15.165Z,55.00
2022-09-12T09:07:37.473Z,54.64
2022-09-12T09:11:02.520Z,54.55
2022-09-12T09:14:49.066Z,54.24
2022-09-12T09:18:04.812Z,55.91
2022-09-12T09:21:20.118Z,56.04
2022-09-12T09:24:26.441Z,55.65
2022-09-12T09:27:41.549Z,55.29
2022-09-12T09:30:45.113Z,56.57
2022-09-12T09:33:56.611Z,56.66
2022-09-12T09:37:18.757Z,56.10
2022-09-12T09:40:36.330Z,57.38
2022-09-12T09:43:40.160Z,56.89
2022-09-12T09:46:42.355Z,56.84
2022-09-12T09:49:44.637Z,57.55
2022-09-12T09:52:49.347Z,58.09
2022-09-12T09:55:53.460Z,57.57
2022-09-12T09:58:55.848Z,57.35
2022-09-12T10:02:24.257Z,57.29
2022-09-12T10:05:26.662Z,58.24
2022-09-12T10:08:32.852Z,57.90
2022-09-12T10:11:45.226Z,57.71
2022-09-12T10:15:03.277Z,57.61
2022-09-12T10:18:05.476Z,57.65
2022-09-12T10:21:30.755Z,57.93
2022-09-12T10:24:37.853Z,58.19
2022-09-12T10:27:42.187Z,58.77
2022-09-12T10:30:52.439Z,58.01
2022-09-12T10:33:55.724Z,57.74
2022-09-12T10:37:05.958Z,57.64
2022-09-12T10:40:20.914Z,57.83
2022-09-12T10:43:33.744Z,57.06
2022-09-12T10:46:35.828Z,56.87
2022-09-12T10:49:40.242Z,57.18
2022-09-12T10:52:42.288Z,57.78
2022-09-12T10:56:01.479Z,57.80
2022-09-12T10:59:31.297Z,57.23
2022-09-12T11:02:38.851Z,57.27
2022-09-12T11:05:54.900Z,56.99
2022-09-12T11:09:06.859Z,57.03
2022-09-12T11:12:25.971Z,57.18
2022-09-12T11:15:52.357Z,57.05
2022-09-12T11:19:21.774Z,57.07
2022-09-12T11:22:38.544Z,57.10
2022-09-12T11:26:00.077Z,56.30
2022-09-12T11:29:38.262Z,55.98
2022-09-12T11:33:00.188Z,55.94
2022-09-12T11:36:07.362Z,55.27
2022-09-12T11:39:37.235Z,54.58
2022-09-12T11:42:40.836Z,54.82
2022-09-12T11:45:45.495Z,54.85
2022-09-12T11:49:04.826Z,54.71
2022-09-12T11:52:26.012Z,54.04
2022-09-12T11:55:32.457Z,53.85
2022-09-12T11:58:36.580Z,54.25
2022-09-12T12:01:48.218Z,53.95
2022-09-12T12:05:16.303Z,53.94
2022-09-12T12:08:19.181Z,53.62
2022-09-12T12:11:44.793Z,52.72
2022-09-12T12:14:49.591Z,51.45
2022-09-12T12:18:16.896Z,51.11
2022-09-12T12:21:29.647Z,50.54
2022-09-12T12:24:34.018Z,49.98
2022-09-12T12:27:47.893Z,49.56
2022-09-12T12:30:56.740Z,49.27
2022-09-12T12:34:04.573Z,46.82
2022-09-12T12:37:21.550Z,45.67
2022-09-12T12:40:26.923Z,45.65
2022-09-12T12:43:32.054Z,45.63
2022-09-12T12:46:38.821Z,46.93
2022-09-12T12:49:41.000Z,46.68
2022-09-12T12:52:52.239Z,44.07
2022-09-12T12:55:56.363Z,45.42
2022-09-12T12:59:01.444Z,46.44
2022-09-12T13:02:04.749Z,44.89
2022-09-12T13:05:21.004Z,45.60
2022-09-12T13:08:34.615Z,45.49
2022-09-12T13:11:39.726Z,45.00
2022-09-12T13:14:51.747Z,43.62
2022-09-12T13:17:58.920Z,41.79
2022-09-12T13:21:20.607Z,43.82
2022-09-12T13:24:23.770Z,45.10
2022-09-12T13:27:26.279Z,44.41
2022-09-12T13:30:34.919Z,44.69
2022-09-12T13:33:39.785Z,46.41
2022-09-12T13:36:53.755Z,46.91
2022-09-12T13:40:25.002Z,45.67
2022-09-12T13:43:40.389Z,44.34
2022-09-12T13:46:42.764Z,43.11
2022-09-12T13:49:47.052Z,42.46
2022-09-12T13:53:11.523Z,42.54
2022-09-12T13:56:18.655Z,44.10
2022-09-12T13:59:20.761Z,42.09
2022-09-12T14:02:24.661Z,43.69
2022-09-12T14:05:27.041Z,43.20
2022-09-12T14:08:30.352Z,43.21
2022-09-12T14:11:33.930Z,43.18
2022-09-12T14:14:37.910Z,41.22
2022-09-12T14:17:41.072Z,40.78
2022-09-12T14:20:44.339Z,40.65
2022-09-12T14:23:48.898Z,40.55
2022-09-12T14:26:56.729Z,42.22
2022-09-12T14:30:07.455Z,40.92
2022-09-12T14:33:12.594Z,38.41
2022-09-12T14:36:27.284Z,39.65
2022-09-12T14:39:33.529Z,41.79
2022-09-12T14:42:35.649Z,40.94
2022-09-12T14:45:37.703Z,39.23
2022-09-12T14:48:46.895Z,39.69
2022-09-12T14:51:56.660Z,41.27
2022-09-12T14:55:20.338Z,41.62
2022-09-12T14:58:26.514Z,42.59
2022-09-12T15:01:28.801Z,42.26
2022-09-12T15:04:42.416Z,43.14
2022-09-12T15:07:48.218Z,43.48
2022-09-12T15:10:50.773Z,44.06
2022-09-12T15:13:52.964Z,44.37
2022-09-12T15:16:55.011Z,44.87
2022-09-12T15:19:57.032Z,45.41
2022-09-12T15:22:59.424Z,45.35
2022-09-12T15:26:02.184Z,40.94
2022-09-12T15:29:04.209Z,42.98
2022-09-12T15:32:09.741Z,43.61
2022-09-12T15:35:22.573Z,45.32
2022-09-12T15:38:26.748Z,46.12
2022-09-12T15:41:33.133Z,46.52
2022-09-12T15:44:35.117Z,45.97
2022-09-12T15:47:37.420Z,45.77
2022-09-12T15:50:40.506Z,43.48
2022-09-12T15:53:43.142Z,44.09
2022-09-12T15:56:45.199Z,45.37
2022-09-12T15:59:47.401Z,45.95
2022-09-12T16:02:52.092Z,46.13
2022-09-12T16:06:00.255Z,46.31
2022-09-12T16:09:02.345Z,46.61
2022-09-12T16:12:04.508Z,46.94
2022-09-12T16:15:07.068Z,47.01
2022-09-12T16:18:09.537Z,46.90
2022-09-12T16:21:15.313Z,47.05
2022-09-12T16:24:17.824Z,47.97
2022-09-12T16:27:20.027Z,47.05
2022-09-12T16:30:22.261Z,47.97
2022-09-12T16:33:25.118Z,47.47
2022-09-12T16:36:27.265Z,49.08
2022-09-12T16:39:29.268Z,48.68
2022-09-12T16:42:31.379Z,48.79
2022-09-12T16:45:33.448Z,49.50
2022-09-12T16:48:36.023Z,49.93
2022-09-12T16:51:38.406Z,50.06
2022-09-12T16:54:40.691Z,50.46
2022-09-12T16:57:42.743Z,49.98
2022-09-12T17:00:44.740Z,50.33
2022-09-12T17:03:47.309Z,50.56
2022-09-12T17:06:49.303Z,50.60
2022-09-12T17:09:52.248Z,50.67
2022-09-12T17:12:54.374Z,51.04
2022-09-12T17:15:56.680Z,51.33
2022-09-12T17:18:58.855Z,51.30
2022-09-12T17:22:01.221Z,52.28
2022-09-12T17:25:03.390Z,52.81
2022-09-12T17:28:05.793Z,52.94
2022-09-12T17:31:11.221Z,53.89
2022-09-12T17:34:17.655Z,54.20
2022-09-12T17:37:19.782Z,55.32
2022-09-12T17:40:37.076Z,55.19
2022-09-12T17:43:50.878Z,54.74
2022-09-12T17:46:52.953Z,54.56
2022-09-12T17:50:09.191Z,54.04
2022-09-12T17:53:17.713Z,53.65
2022-09-12T17:56:20.439Z,53.55
2022-09-12T17:59:24.705Z,53.33
2022-09-12T18:02:29.369Z,53.46
2022-09-12T18:05:35.410Z,53.15
2022-09-12T18:08:37.485Z,53.46
2022-09-12T18:11:39.873Z,53.09
2022-09-12T18:14:42.217Z,53.23
2022-09-12T18:17:44.357Z,53.25
2022-09-12T18:20:51.084Z,52.98
2022-09-12T18:23:53.275Z,52.95
2022-09-12T18:26:58.654Z,52.94
2022-09-12T18:30:20.216Z,52.98
2022-09-12T18:33:24.243Z,52.78
2022-09-12T18:36:26.872Z,52.95
2022-09-12T18:39:28.916Z,52.74
2022-09-12T18:42:31.025Z,52.69
2022-09-12T18:45:33.770Z,52.67
2022-09-12T18:48:36.025Z,52.71
2022-09-12T18:51:40.231Z,52.69
2022-09-12T18:54:42.313Z,52.62
2022-09-12T18:57:44.640Z,52.72
2022-09-12T19:00:48.443Z,52.62
2022-09-12T19:03:51.208Z,52.62
2022-09-12T19:06:53.348Z,52.72
2022-09-12T19:09:55.555Z,52.72
2022-09-12T19:12:57.688Z,52.78
2022-09-12T19:16:01.473Z,52.68
2022-09-12T19:19:04.051Z,52.69
2022-09-12T19:22:06.280Z,52.79
2022-09-12T19:25:08.899Z,52.78
2022-09-12T19:28:11.583Z,52.82
2022-09-12T19:31:16.558Z,52.84
2022-09-12T19:34:18.652Z,52.88
2022-09-12T19:37:20.675Z,52.86
2022-09-12T19:40:22.894Z,52.84
2022-09-12T19:43:25.315Z,52.93
2022-09-12T19:46:27.770Z,52.86
2022-09-12T19:49:29.937Z,52.90
2022-09-12T19:52:32.024Z,52.86
2022-09-12T19:55:35.647Z,52.79
2022-09-12T19:58:43.404Z,52.85
2022-09-12T20:01:45.969Z,52.94
2022-09-12T20:04:48.089Z,52.82
2022-09-12T20:07:51.475Z,52.78
2022-09-12T20:10:57.175Z,52.94
2022-09-12T20:13:59.364Z,52.85
2022-09-12T20:17:01.425Z,52.98
2022-09-12T20:20:04.949Z,52.87
2022-09-12T20:23:07.226Z,52.88
2022-09-12T20:26:09.919Z,52.88
2022-09-12T20:29:12.564Z,52.82
2022-09-12T20:32:14.626Z,52.87
2022-09-12T20:35:17.261Z,52.88
2022-09-12T20:38:19.295Z,52.75
2022-09-12T20:41:22.457Z,52.87
2022-09-12T20:44:24.521Z,52.78
2022-09-12T20:47:26.707Z,52.75
2022-09-12T20:50:29.027Z,52.75
2022-09-12T20:53:34.816Z,52.62
2022-09-12T20:56:38.171Z,52.58
2022-09-12T20:59:42.440Z,52.75
2022-09-12T21:02:44.491Z,52.82
2022-09-12T21:05:46.900Z,52.78
2022-09-12T21:08:49.884Z,52.75
2022-09-12T21:11:51.936Z,52.82
2022-09-12T21:14:54.027Z,52.89
2022-09-12T21:17:56.054Z,53.09
2022-09-12T21:20:58.245Z,52.82
2022-09-12T21:24:02.671Z,52.78
2022-09-12T21:27:04.954Z,52.72
2022-09-12T21:30:07.505Z,52.72
2022-09-12T21:33:12.611Z,52.78
2022-09-12T21:36:14.772Z,52.82
2022-09-12T21:39:16.772Z,52.68
2022-09-12T21:42:18.827Z,52.72
2022-09-12T21:45:20.923Z,52.70
2022-09-12T21:48:22.940Z,52.60
2022-09-12T21:51:25.168Z,52.59
2022-09-12T21:54:27.181Z,52.62
2022-09-12T21:57:29.256Z,52.51
2022-09-12T22:00:31.336Z,52.62
2022-09-12T22:03:33.424Z,52.64
2022-09-12T22:06:35.510Z,52.62
2022-09-12T22:09:37.541Z,52.62
2022-09-12T22:12:44.008Z,52.83
2022-09-12T22:15:51.923Z,52.91
2022-09-12T22:18:54.287Z,52.75
2022-09-12T22:22:14.885Z,52.69
2022-09-12T22:25:17.004Z,52.57
2022-09-12T22:28:19.052Z,52.20
2022-09-12T22:31:21.284Z,51.48
2022-09-12T22:34:23.477Z,51.77
2022-09-12T22:37:26.406Z,51.33
2022-09-12T22:40:28.422Z,51.27
2022-09-12T22:43:31.295Z,51.46
2022-09-12T22:46:33.777Z,51.43
2022-09-12T22:49:36.062Z,51.12
2022-09-12T22:52:38.071Z,51.53
2022-09-12T22:55:40.064Z,51.73
2022-09-12T22:58:43.015Z,51.75
2022-09-12T23:01:45.018Z,51.53
2022-09-12T23:04:47.057Z,51.56
2022-09-12T23:07:50.211Z,51.62
2022-09-12T23:10:59.209Z,51.69
2022-09-12T23:14:01.278Z,51.80
2022-09-12T23:17:03.412Z,51.84
2022-09-12T23:20:06.283Z,52.00
2022-09-12T23:23:08.455Z,51.95
2022-09-12T23:26:16.067Z,52.04
2022-09-12T23:29:18.132Z,52.08
2022-09-12T23:32:21.080Z,52.12
2022-09-12T23:35:23.094Z,52.09
2022-09-12T23:38:25.255Z,52.18
2022-09-12T23:41:27.382Z,52.12
2022-09-12T23:44:29.402Z,52.27
2022-09-12T23:47:31.425Z,52.27
2022-09-12T23:50:33.421Z,52.28
2022-09-12T23:53:35.780Z,52.28
2022-09-12T23:56:37.793Z,52.27
2022-09-12T23:59:39.784Z,52.25
